Time;durP1;ratioP1;P1;durP2;ratioP2;P2;SDS_P1;SDS_P2;PMS_P1;PMS_P2;Temp;Humidity;BMP_temperature;BMP_pressure;BME280_temperature;BME280_humidity;BME280_pressure;Samples;Min_cycle;Max_cycle;Signal;HPM_P1;HPM_P2
2021/09/04 02:31:41;;;;;;;;;;;11.90;86.00;;;;;;5112643;27;19912;-85
2021/09/04 02:34:07;;;;;;;;;;;11.90;92.80;;;;;;5112368;28;20014;-86
2021/09/04 02:36:32;;;;;;;;;;;12.00;92.60;;;;;;5112352;28;19915;-86
2021/09/04 02:38:58;;;;;;;;;;;12.20;92.60;;;;;;5145000;27;19915;-86
2021/09/04 02:41:23;;;;;;;;;;;12.20;92.70;;;;;;5107102;28;19961;-87
2021/09/04 02:43:49;;;;;;;;;;;12.30;92.70;;;;;;5095980;28;19909;-87
2021/09/04 02:46:14;;;;;;;;;;;12.40;92.80;;;;;;5105760;28;19908;-86
2021/09/04 02:48:40;;;;;;;;;;;12.50;92.80;;;;;;5112097;28;20276;-86
2021/09/04 02:51:06;;;;;;;;;;;12.60;92.80;;;;;;5110382;28;19912;-87
2021/09/04 02:53:32;;;;;;;;;;;12.60;92.70;;;;;;5110374;28;19912;-88
2021/09/04 02:55:58;;;;;;;;;;;12.70;92.70;;;;;;5111668;28;19908;-92
2021/09/04 02:58:23;;;;;;;;;;;12.70;92.60;;;;;;5110335;28;20405;-91
2021/09/04 03:00:49;;;;;;;;;;;12.80;92.50;;;;;;5110282;28;19908;-89
2021/09/04 03:03:14;;;;;;;;;;;12.90;92.50;;;;;;5111748;28;20007;-92
2021/09/04 03:05:40;;;;;;;;;;;12.90;92.50;;;;;;5111095;28;20391;-90
2021/09/04 03:08:06;;;;;;;;;;;13.00;92.40;;;;;;5141920;27;20280;-91
2021/09/04 03:10:31;;;;;;;;;;;13.00;92.30;;;;;;5110262;28;19920;-91
2021/09/04 03:12:57;;;;;;;;;;;13.00;92.20;;;;;;5109876;28;20349;-89
2021/09/04 03:15:22;;;;;;;;;;;13.00;92.20;;;;;;5109591;28;19912;-91
2021/09/04 03:17:48;;;;;;;;;;;13.10;92.20;;;;;;5110671;28;19996;-88
2021/09/04 03:20:14;;;;;;;;;;;13.10;92.10;;;;;;5109802;28;19912;-90
2021/09/04 03:22:39;;;;;;;;;;;13.10;92.00;;;;;;5109699;28;19912;-89
2021/09/04 03:25:05;;;;;;;;;;;13.20;92.00;;;;;;5109707;28;19912;-89
2021/09/04 03:27:31;;;;;;;;;;;13.20;92.10;;;;;;5111008;28;19961;-88
2021/09/04 03:29:57;;;;;;;;;;;13.30;92.00;;;;;;5106519;28;19924;-89
2021/09/04 03:32:23;;;;;;;;;;;13.30;91.90;;;;;;5110814;28;20364;-89
2021/09/04 03:34:49;;;;;;;;;;;13.40;91.90;;;;;;5111492;28;19919;-87
2021/09/04 03:37:15;;;;;;;;;;;13.40;91.80;;;;;;5090692;28;20287;-88
2021/09/04 03:39:40;;;;;;;;;;;13.40;91.80;;;;;;5089553;28;19957;-87
2021/09/04 03:42:06;;;;;;;;;;;13.40;91.80;;;;;;5082602;28;19909;-88
2021/09/04 18:55:52;;;;;;;;;;;10.50;70.90;;;;;;5112165;27;20291;-89
2021/09/04 18:58:18;;;;;;;;;;;10.20;73.70;;;;;;5112427;28;20010;-89
2021/09/04 19:00:43;;;;;;;;;;;10.20;76.00;;;;;;5112317;28;19908;-89
2021/09/04 19:03:09;;;;;;;;;;;10.20;77.60;;;;;;5110781;28;19943;-87
2021/09/04 19:05:34;;;;;;;;;;;10.30;78.80;;;;;;5110637;28;20360;-87
2021/09/04 19:08:00;;;;;;;;;;;10.30;79.50;;;;;;5110609;28;19947;-87
2021/09/04 19:10:26;;;;;;;;;;;10.40;80.10;;;;;;5110575;28;19908;-87
2021/09/04 19:12:52;;;;;;;;;;;10.50;80.60;;;;;;5111846;28;19908;-87
2021/09/04 19:15:17;;;;;;;;;;;10.50;81.00;;;;;;5111981;28;20016;-88
2021/09/04 19:17:43;;;;;;;;;;;10.50;81.10;;;;;;5110438;28;19908;-87
2021/09/04 19:20:09;;;;;;;;;;;10.60;81.30;;;;;;5110385;28;19916;-88
2021/09/04 19:22:35;;;;;;;;;;;10.60;81.70;;;;;;5111471;28;19933;-88
2021/09/04 19:25:01;;;;;;;;;;;10.60;82.20;;;;;;5110184;28;19995;-88
2021/09/04 19:27:26;;;;;;;;;;;10.60;81.90;;;;;;5110208;28;20007;-89
2021/09/04 19:29:52;;;;;;;;;;;10.60;81.90;;;;;;5110183;28;19974;-88
2021/09/04 19:32:17;;;;;;;;;;;10.60;83.00;;;;;;5111440;28;19911;-88
2021/09/04 19:34:43;;;;;;;;;;;10.60;82.60;;;;;;5111661;28;19912;-88
2021/09/04 19:37:08;;;;;;;;;;;10.60;82.50;;;;;;5110437;28;19908;-87
2021/09/04 19:39:34;;;;;;;;;;;10.60;82.10;;;;;;5111262;28;19908;-89
2021/09/04 19:42:00;;;;;;;;;;;10.60;82.10;;;;;;5109971;28;20391;-87
2021/09/04 19:44:25;;;;;;;;;;;10.50;82.30;;;;;;5144293;27;19951;-88
2021/09/04 19:46:51;;;;;;;;;;;10.50;82.70;;;;;;5111531;28;19908;-87
2021/09/04 19:49:16;;;;;;;;;;;10.50;83.00;;;;;;5109765;28;20360;-88
2021/09/04 19:51:42;;;;;;;;;;;10.50;83.30;;;;;;5098964;28;19916;-88
2021/09/04 19:54:08;;;;;;;;;;;10.40;83.50;;;;;;5110647;28;20288;-88
2021/09/04 19:56:34;;;;;;;;;;;10.40;83.70;;;;;;5097916;28;19908;-89
2021/09/04 19:58:59;;;;;;;;;;;10.40;83.70;;;;;;5089318;28;19940;-89
2021/09/04 20:11:27;;;;;;;;;;;10.10;79.60;;;;;;5112515;27;19916;-92
2021/09/04 20:13:53;;;;;;;;;;;9.90;81.20;;;;;;5112178;28;20347;-89
2021/09/04 20:16:18;;;;;;;;;;;9.80;82.80;;;;;;5112611;28;19920;-88
2021/09/04 20:18:44;;;;;;;;;;;9.70;83.80;;;;;;5145580;27;19908;-89
2021/09/04 20:21:09;;;;;;;;;;;9.70;84.30;;;;;;5145484;27;20356;-90
2021/09/04 20:23:35;;;;;;;;;;;9.70;84.50;;;;;;5095081;28;19908;-89
2021/09/04 20:26:01;;;;;;;;;;;9.70;85.20;;;;;;5090368;28;19912;-89
2021/09/04 20:28:26;;;;;;;;;;;9.70;85.70;;;;;;5088307;28;20377;-89
2021/09/04 20:30:52;;;;;;;;;;;9.70;85.90;;;;;;5084429;28;20280;-89
2021/09/04 20:33:17;;;;;;;;;;;9.70;86.20;;;;;;5092093;28;19912;-89
2021/09/04 20:35:52;;;;;;;;;;;9.60;86.40;;;;;;5079957;28;20003;-89
2021/09/04 20:40:53;;;;;;;;;;;9.60;87.10;;;;;;5098842;28;19919;-91
2021/09/04 20:43:18;;;;;;;;;;;9.60;87.20;;;;;;5091148;28;19916;-90
2021/09/04 20:45:44;;;;;;;;;;;9.60;87.50;;;;;;5091781;28;19917;-90
2021/09/04 20:48:09;;;;;;;;;;;9.50;87.70;;;;;;5091599;28;19915;-87
2021/09/04 20:50:35;;;;;;;;;;;9.50;88.00;;;;;;5090506;28;19942;-86
2021/09/04 20:53:02;;;;;;;;;;;9.50;88.10;;;;;;5098739;28;19950;-88
2021/09/04 20:55:27;;;;;;;;;;;9.50;88.30;;;;;;5091839;28;19913;-87
2021/09/04 20:57:53;;;;;;;;;;;9.40;88.40;;;;;;5102010;28;19912;-86
2021/09/04 21:00:19;;;;;;;;;;;9.40;88.60;;;;;;5089502;28;19923;-88
2021/09/04 21:02:44;;;;;;;;;;;9.40;88.90;;;;;;5090838;28;19908;-87
2021/09/04 21:05:10;;;;;;;;;;;9.30;89.20;;;;;;5089541;28;19909;-87
2021/09/04 21:07:35;;;;;;;;;;;9.30;89.30;;;;;;5087213;28;19915;-87
2021/09/04 21:10:01;;;;;;;;;;;9.30;89.60;;;;;;5095068;28;19931;-87
2021/09/04 21:12:29;;;;;;;;;;;9.30;89.70;;;;;;5111039;28;19960;-87
2021/09/04 21:15:26;;;;;;;;;;;9.20;89.00;;;;;;5092638;28;19919;-85
2021/09/04 21:17:52;;;;;;;;;;;9.20;90.00;;;;;;5091685;28;19913;-88
2021/09/04 21:20:18;;;;;;;;;;;9.20;90.10;;;;;;5091656;28;19919;-88
